sensor_id;sensor_type;location;lat;lon;timestamp;P1;durP1;ratioP1;P2;durP2;ratioP2
28551;SDS011;15752;49.560;8.708;2022-12-18T00:00:08;40.37;;;20.93;;
28551;SDS011;15752;49.560;8.708;2022-12-18T00:02:42;37.07;;;21.63;;
28551;SDS011;15752;49.560;8.708;2022-12-18T00:05:11;40.23;;;20.83;;
28551;SDS011;15752;49.560;8.708;2022-12-18T00:07:39;34.23;;;19.20;;
28551;SDS011;15752;49.560;8.708;2022-12-18T00:10:08;37.03;;;20.60;;
28551;SDS011;15752;49.560;8.708;2022-12-18T00:12:42;34.17;;;19.63;;
28551;SDS011;15752;49.560;8.708;2022-12-18T00:15:10;34.80;;;20.47;;
28551;SDS011;15752;49.560;8.708;2022-12-18T00:17:38;29.97;;;17.83;;
28551;SDS011;15752;49.560;8.708;2022-12-18T00:20:07;33.37;;;19.17;;
28551;SDS011;15752;49.560;8.708;2022-12-18T00:22:37;35.37;;;18.83;;
28551;SDS011;15752;49.560;8.708;2022-12-18T00:25:05;40.00;;;22.53;;
28551;SDS011;15752;49.560;8.708;2022-12-18T00:27:35;32.33;;;19.17;;
28551;SDS011;15752;49.560;8.708;2022-12-18T00:30:05;33.93;;;18.83;;
28551;SDS011;15752;49.560;8.708;2022-12-18T00:32:35;35.90;;;19.63;;
28551;SDS011;15752;49.560;8.708;2022-12-18T00:35:03;34.60;;;19.10;;
28551;SDS011;15752;49.560;8.708;2022-12-18T00:37:33;35.63;;;18.83;;
28551;SDS011;15752;49.560;8.708;2022-12-18T00:40:03;34.80;;;20.63;;
28551;SDS011;15752;49.560;8.708;2022-12-18T00:42:33;36.33;;;20.27;;
28551;SDS011;15752;49.560;8.708;2022-12-18T00:45:21;34.67;;;19.47;;
28551;SDS011;15752;49.560;8.708;2022-12-18T00:47:49;38.17;;;20.67;;
28551;SDS011;15752;49.560;8.708;2022-12-18T00:50:18;36.57;;;18.23;;
28551;SDS011;15752;49.560;8.708;2022-12-18T00:52:47;32.43;;;18.20;;
28551;SDS011;15752;49.560;8.708;2022-12-18T00:55:16;34.70;;;20.23;;
28551;SDS011;15752;49.560;8.708;2022-12-18T00:57:45;37.43;;;20.50;;
28551;SDS011;15752;49.560;8.708;2022-12-18T01:00:14;38.83;;;21.27;;
28551;SDS011;15752;49.560;8.708;2022-12-18T01:02:44;28.90;;;18.73;;
28551;SDS011;15752;49.560;8.708;2022-12-18T01:05:13;34.67;;;19.17;;
28551;SDS011;15752;49.560;8.708;2022-12-18T01:07:42;36.20;;;22.60;;
28551;SDS011;15752;49.560;8.708;2022-12-18T01:10:12;35.57;;;19.00;;
28551;SDS011;15752;49.560;8.708;2022-12-18T01:12:41;35.63;;;21.90;;
28551;SDS011;15752;49.560;8.708;2022-12-18T01:15:09;38.13;;;21.63;;
28551;SDS011;15752;49.560;8.708;2022-12-18T01:17:39;40.90;;;21.97;;
28551;SDS011;15752;49.560;8.708;2022-12-18T01:20:10;34.17;;;19.03;;
28551;SDS011;15752;49.560;8.708;2022-12-18T01:22:40;40.10;;;22.10;;
28551;SDS011;15752;49.560;8.708;2022-12-18T01:25:08;39.97;;;22.20;;
28551;SDS011;15752;49.560;8.708;2022-12-18T01:27:37;35.33;;;19.60;;
28551;SDS011;15752;49.560;8.708;2022-12-18T01:30:06;34.70;;;20.13;;
28551;SDS011;15752;49.560;8.708;2022-12-18T01:32:35;36.93;;;19.53;;
28551;SDS011;15752;49.560;8.708;2022-12-18T01:35:04;31.73;;;17.37;;
28551;SDS011;15752;49.560;8.708;2022-12-18T01:37:35;36.47;;;18.83;;
28551;SDS011;15752;49.560;8.708;2022-12-18T01:40:05;37.97;;;20.43;;
28551;SDS011;15752;49.560;8.708;2022-12-18T01:42:35;35.23;;;19.63;;
28551;SDS011;15752;49.560;8.708;2022-12-18T01:45:05;33.87;;;16.53;;
28551;SDS011;15752;49.560;8.708;2022-12-18T01:47:52;33.93;;;19.07;;
28551;SDS011;15752;49.560;8.708;2022-12-18T01:50:23;33.57;;;17.57;;
28551;SDS011;15752;49.560;8.708;2022-12-18T01:52:58;33.73;;;19.20;;
28551;SDS011;15752;49.560;8.708;2022-12-18T01:55:30;34.87;;;17.17;;
28551;SDS011;15752;49.560;8.708;2022-12-18T01:58:04;38.43;;;19.77;;
28551;SDS011;15752;49.560;8.708;2022-12-18T02:00:32;27.87;;;16.77;;
28551;SDS011;15752;49.560;8.708;2022-12-18T02:03:02;30.77;;;16.77;;
28551;SDS011;15752;49.560;8.708;2022-12-18T02:05:34;33.33;;;18.33;;
28551;SDS011;15752;49.560;8.708;2022-12-18T02:08:14;27.53;;;15.43;;
28551;SDS011;15752;49.560;8.708;2022-12-18T02:10:50;29.87;;;16.10;;
28551;SDS011;15752;49.560;8.708;2022-12-18T02:13:27;30.17;;;16.07;;
28551;SDS011;15752;49.560;8.708;2022-12-18T02:16:06;29.50;;;17.73;;
28551;SDS011;15752;49.560;8.708;2022-12-18T02:18:45;28.23;;;16.17;;
28551;SDS011;15752;49.560;8.708;2022-12-18T02:21:20;26.93;;;16.73;;
28551;SDS011;15752;49.560;8.708;2022-12-18T02:24:04;30.13;;;15.43;;
28551;SDS011;15752;49.560;8.708;2022-12-18T02:26:48;29.97;;;16.33;;
28551;SDS011;15752;49.560;8.708;2022-12-18T02:29:22;25.87;;;15.57;;
28551;SDS011;15752;49.560;8.708;2022-12-18T02:31:54;31.17;;;17.30;;
28551;SDS011;15752;49.560;8.708;2022-12-18T02:34:27;29.97;;;16.97;;
28551;SDS011;15752;49.560;8.708;2022-12-18T02:36:58;32.37;;;17.70;;
28551;SDS011;15752;49.560;8.708;2022-12-18T02:39:36;35.00;;;18.80;;
28551;SDS011;15752;49.560;8.708;2022-12-18T02:42:11;29.27;;;15.67;;
28551;SDS011;15752;49.560;8.708;2022-12-18T02:44:43;31.30;;;18.03;;
28551;SDS011;15752;49.560;8.708;2022-12-18T02:47:19;31.23;;;16.73;;
28551;SDS011;15752;49.560;8.708;2022-12-18T02:49:53;27.93;;;16.23;;
28551;SDS011;15752;49.560;8.708;2022-12-18T02:52:34;26.07;;;15.80;;
28551;SDS011;15752;49.560;8.708;2022-12-18T02:55:17;25.40;;;15.33;;
28551;SDS011;15752;49.560;8.708;2022-12-18T02:58:03;31.53;;;17.50;;
28551;SDS011;15752;49.560;8.708;2022-12-18T03:00:41;24.83;;;14.17;;
28551;SDS011;15752;49.560;8.708;2022-12-18T03:03:18;25.23;;;14.60;;
28551;SDS011;15752;49.560;8.708;2022-12-18T03:05:53;33.60;;;17.27;;
28551;SDS011;15752;49.560;8.708;2022-12-18T03:08:26;29.77;;;16.40;;
28551;SDS011;15752;49.560;8.708;2022-12-18T03:10:59;31.77;;;16.90;;
28551;SDS011;15752;49.560;8.708;2022-12-18T03:13:34;24.63;;;14.47;;
28551;SDS011;15752;49.560;8.708;2022-12-18T03:16:11;30.27;;;16.23;;
28551;SDS011;15752;49.560;8.708;2022-12-18T03:18:45;28.20;;;15.07;;
28551;SDS011;15752;49.560;8.708;2022-12-18T03:21:19;25.03;;;13.77;;
28551;SDS011;15752;49.560;8.708;2022-12-18T03:23:50;27.87;;;15.87;;
28551;SDS011;15752;49.560;8.708;2022-12-18T03:26:24;26.47;;;15.60;;
28551;SDS011;15752;49.560;8.708;2022-12-18T03:29:00;29.87;;;15.87;;
28551;SDS011;15752;49.560;8.708;2022-12-18T03:31:36;29.47;;;15.93;;
28551;SDS011;15752;49.560;8.708;2022-12-18T03:34:09;27.33;;;15.83;;
28551;SDS011;15752;49.560;8.708;2022-12-18T03:36:45;31.40;;;16.23;;
28551;SDS011;15752;49.560;8.708;2022-12-18T03:39:13;26.17;;;14.67;;
28551;SDS011;15752;49.560;8.708;2022-12-18T03:41:51;24.93;;;13.63;;
28551;SDS011;15752;49.560;8.708;2022-12-18T03:44:32;28.83;;;14.47;;
28551;SDS011;15752;49.560;8.708;2022-12-18T03:47:09;28.17;;;16.13;;
28551;SDS011;15752;49.560;8.708;2022-12-18T03:49:46;25.90;;;14.50;;
28551;SDS011;15752;49.560;8.708;2022-12-18T03:52:21;29.20;;;16.33;;
28551;SDS011;15752;49.560;8.708;2022-12-18T03:54:55;23.43;;;13.93;;
28551;SDS011;15752;49.560;8.708;2022-12-18T03:57:26;26.00;;;13.93;;
28551;SDS011;15752;49.560;8.708;2022-12-18T03:59:59;26.67;;;14.73;;
28551;SDS011;15752;49.560;8.708;2022-12-18T04:02:40;24.97;;;14.10;;
28551;SDS011;15752;49.560;8.708;2022-12-18T04:05:20;28.13;;;16.53;;
28551;SDS011;15752;49.560;8.708;2022-12-18T04:07:51;29.07;;;16.30;;
28551;SDS011;15752;49.560;8.708;2022-12-18T04:10:21;27.90;;;13.90;;
28551;SDS011;15752;49.560;8.708;2022-12-18T04:12:50;31.40;;;16.97;;
28551;SDS011;15752;49.560;8.708;2022-12-18T04:15:24;27.30;;;16.53;;
28551;SDS011;15752;49.560;8.708;2022-12-18T04:17:54;24.87;;;13.90;;
28551;SDS011;15752;49.560;8.708;2022-12-18T04:20:24;28.17;;;16.27;;
28551;SDS011;15752;49.560;8.708;2022-12-18T04:22:53;27.93;;;15.83;;
28551;SDS011;15752;49.560;8.708;2022-12-18T04:25:22;29.33;;;16.53;;
28551;SDS011;15752;49.560;8.708;2022-12-18T04:28:03;28.13;;;15.83;;
28551;SDS011;15752;49.560;8.708;2022-12-18T04:30:34;26.73;;;15.17;;
28551;SDS011;15752;49.560;8.708;2022-12-18T04:33:04;22.20;;;12.93;;
28551;SDS011;15752;49.560;8.708;2022-12-18T04:35:36;29.33;;;15.77;;
28551;SDS011;15752;49.560;8.708;2022-12-18T04:38:06;25.53;;;14.67;;
28551;SDS011;15752;49.560;8.708;2022-12-18T04:40:37;26.83;;;14.53;;
28551;SDS011;15752;49.560;8.708;2022-12-18T04:43:14;29.00;;;14.67;;
28551;SDS011;15752;49.560;8.708;2022-12-18T04:45:44;30.17;;;16.20;;
28551;SDS011;15752;49.560;8.708;2022-12-18T04:48:12;28.10;;;16.63;;
28551;SDS011;15752;49.560;8.708;2022-12-18T04:50:41;26.80;;;16.67;;
28551;SDS011;15752;49.560;8.708;2022-12-18T04:53:09;24.93;;;13.80;;
28551;SDS011;15752;49.560;8.708;2022-12-18T04:55:37;27.50;;;15.23;;
28551;SDS011;15752;49.560;8.708;2022-12-18T04:58:06;27.23;;;15.07;;
28551;SDS011;15752;49.560;8.708;2022-12-18T05:00:34;27.50;;;15.00;;
28551;SDS011;15752;49.560;8.708;2022-12-18T05:03:04;25.80;;;13.80;;
28551;SDS011;15752;49.560;8.708;2022-12-18T05:05:34;26.27;;;15.50;;
28551;SDS011;15752;49.560;8.708;2022-12-18T05:08:03;31.03;;;15.77;;
28551;SDS011;15752;49.560;8.708;2022-12-18T05:10:32;28.20;;;13.90;;
28551;SDS011;15752;49.560;8.708;2022-12-18T05:13:03;23.40;;;13.73;;
28551;SDS011;15752;49.560;8.708;2022-12-18T05:15:32;27.03;;;15.37;;
28551;SDS011;15752;49.560;8.708;2022-12-18T05:18:03;29.27;;;16.23;;
28551;SDS011;15752;49.560;8.708;2022-12-18T05:20:33;24.13;;;14.73;;
28551;SDS011;15752;49.560;8.708;2022-12-18T05:23:01;24.30;;;12.67;;
28551;SDS011;15752;49.560;8.708;2022-12-18T05:25:29;27.23;;;15.37;;
28551;SDS011;15752;49.560;8.708;2022-12-18T05:27:58;24.07;;;13.47;;
28551;SDS011;15752;49.560;8.708;2022-12-18T05:30:26;27.63;;;15.33;;
28551;SDS011;15752;49.560;8.708;2022-12-18T05:32:55;26.77;;;15.80;;
28551;SDS011;15752;49.560;8.708;2022-12-18T05:35:24;31.57;;;17.80;;
28551;SDS011;15752;49.560;8.708;2022-12-18T05:37:53;37.23;;;19.37;;
28551;SDS011;15752;49.560;8.708;2022-12-18T05:40:21;34.23;;;17.30;;
28551;SDS011;15752;49.560;8.708;2022-12-18T05:42:50;34.10;;;18.17;;
28551;SDS011;15752;49.560;8.708;2022-12-18T05:45:18;34.73;;;19.17;;
28551;SDS011;15752;49.560;8.708;2022-12-18T05:47:46;38.70;;;19.83;;
28551;SDS011;15752;49.560;8.708;2022-12-18T05:50:15;33.43;;;17.60;;
28551;SDS011;15752;49.560;8.708;2022-12-18T05:52:45;32.60;;;17.43;;
28551;SDS011;15752;49.560;8.708;2022-12-18T05:55:13;33.10;;;17.13;;
28551;SDS011;15752;49.560;8.708;2022-12-18T05:57:42;29.23;;;17.27;;
28551;SDS011;15752;49.560;8.708;2022-12-18T06:00:11;33.10;;;17.27;;
28551;SDS011;15752;49.560;8.708;2022-12-18T06:02:42;30.53;;;16.67;;
28551;SDS011;15752;49.560;8.708;2022-12-18T06:05:14;29.67;;;16.63;;
28551;SDS011;15752;49.560;8.708;2022-12-18T06:07:42;32.77;;;15.83;;
28551;SDS011;15752;49.560;8.708;2022-12-18T06:10:12;37.17;;;16.90;;
28551;SDS011;15752;49.560;8.708;2022-12-18T06:12:41;29.70;;;14.47;;
28551;SDS011;15752;49.560;8.708;2022-12-18T06:15:10;26.10;;;13.50;;
28551;SDS011;15752;49.560;8.708;2022-12-18T06:17:39;25.90;;;14.03;;
28551;SDS011;15752;49.560;8.708;2022-12-18T06:20:08;25.93;;;13.90;;
28551;SDS011;15752;49.560;8.708;2022-12-18T06:22:37;27.97;;;15.27;;
28551;SDS011;15752;49.560;8.708;2022-12-18T06:25:07;28.73;;;14.70;;
28551;SDS011;15752;49.560;8.708;2022-12-18T06:27:36;25.60;;;14.43;;
28551;SDS011;15752;49.560;8.708;2022-12-18T06:30:05;24.03;;;13.93;;
28551;SDS011;15752;49.560;8.708;2022-12-18T06:32:35;22.03;;;12.77;;
28551;SDS011;15752;49.560;8.708;2022-12-18T06:35:04;27.13;;;15.10;;
28551;SDS011;15752;49.560;8.708;2022-12-18T06:37:33;25.00;;;14.97;;
28551;SDS011;15752;49.560;8.708;2022-12-18T06:40:02;27.57;;;15.27;;
28551;SDS011;15752;49.560;8.708;2022-12-18T06:42:33;25.87;;;14.33;;
28551;SDS011;15752;49.560;8.708;2022-12-18T06:45:01;26.67;;;15.13;;
28551;SDS011;15752;49.560;8.708;2022-12-18T06:47:30;25.97;;;13.83;;
28551;SDS011;15752;49.560;8.708;2022-12-18T06:49:58;30.20;;;15.87;;
28551;SDS011;15752;49.560;8.708;2022-12-18T06:52:26;27.30;;;14.80;;
28551;SDS011;15752;49.560;8.708;2022-12-18T06:54:55;23.53;;;12.17;;
28551;SDS011;15752;49.560;8.708;2022-12-18T06:57:23;25.53;;;13.83;;
28551;SDS011;15752;49.560;8.708;2022-12-18T06:59:53;24.60;;;13.83;;
28551;SDS011;15752;49.560;8.708;2022-12-18T07:02:21;23.97;;;12.03;;
28551;SDS011;15752;49.560;8.708;2022-12-18T07:04:50;23.33;;;13.77;;
28551;SDS011;15752;49.560;8.708;2022-12-18T07:07:18;25.47;;;14.63;;
28551;SDS011;15752;49.560;8.708;2022-12-18T07:09:48;28.27;;;15.70;;
28551;SDS011;15752;49.560;8.708;2022-12-18T07:12:17;25.17;;;15.63;;
28551;SDS011;15752;49.560;8.708;2022-12-18T07:14:46;29.47;;;14.23;;
28551;SDS011;15752;49.560;8.708;2022-12-18T07:17:15;25.23;;;14.20;;
28551;SDS011;15752;49.560;8.708;2022-12-18T07:19:44;30.67;;;16.90;;
28551;SDS011;15752;49.560;8.708;2022-12-18T07:22:12;33.70;;;18.20;;
28551;SDS011;15752;49.560;8.708;2022-12-18T07:24:40;29.70;;;16.33;;
28551;SDS011;15752;49.560;8.708;2022-12-18T07:27:09;31.20;;;19.37;;
28551;SDS011;15752;49.560;8.708;2022-12-18T07:29:37;34.83;;;18.53;;
28551;SDS011;15752;49.560;8.708;2022-12-18T07:32:06;31.53;;;17.03;;
28551;SDS011;15752;49.560;8.708;2022-12-18T07:34:36;35.43;;;20.13;;
28551;SDS011;15752;49.560;8.708;2022-12-18T07:37:04;26.93;;;15.03;;
28551;SDS011;15752;49.560;8.708;2022-12-18T07:39:33;29.30;;;16.43;;
28551;SDS011;15752;49.560;8.708;2022-12-18T07:42:01;33.43;;;16.70;;
28551;SDS011;15752;49.560;8.708;2022-12-18T07:44:48;28.07;;;14.70;;
28551;SDS011;15752;49.560;8.708;2022-12-18T07:47:16;30.87;;;17.97;;
28551;SDS011;15752;49.560;8.708;2022-12-18T07:49:46;31.30;;;16.53;;
28551;SDS011;15752;49.560;8.708;2022-12-18T07:52:14;31.03;;;15.93;;
28551;SDS011;15752;49.560;8.708;2022-12-18T07:54:51;30.33;;;16.97;;
28551;SDS011;15752;49.560;8.708;2022-12-18T07:57:19;29.07;;;15.67;;
28551;SDS011;15752;49.560;8.708;2022-12-18T08:00:08;31.17;;;16.00;;
28551;SDS011;15752;49.560;8.708;2022-12-18T08:02:38;35.63;;;18.93;;
28551;SDS011;15752;49.560;8.708;2022-12-18T08:05:09;32.23;;;18.40;;
28551;SDS011;15752;49.560;8.708;2022-12-18T08:07:37;32.07;;;15.83;;
28551;SDS011;15752;49.560;8.708;2022-12-18T08:10:06;30.93;;;17.50;;
28551;SDS011;15752;49.560;8.708;2022-12-18T08:12:35;28.30;;;14.90;;
28551;SDS011;15752;49.560;8.708;2022-12-18T08:15:04;31.53;;;16.63;;
28551;SDS011;15752;49.560;8.708;2022-12-18T08:17:34;32.73;;;17.17;;
28551;SDS011;15752;49.560;8.708;2022-12-18T08:20:02;27.77;;;15.27;;
28551;SDS011;15752;49.560;8.708;2022-12-18T08:22:37;28.87;;;15.73;;
28551;SDS011;15752;49.560;8.708;2022-12-18T08:25:06;29.37;;;17.47;;
28551;SDS011;15752;49.560;8.708;2022-12-18T08:27:35;25.70;;;15.73;;
28551;SDS011;15752;49.560;8.708;2022-12-18T08:30:04;30.27;;;17.13;;
28551;SDS011;15752;49.560;8.708;2022-12-18T08:32:34;27.23;;;15.37;;
28551;SDS011;15752;49.560;8.708;2022-12-18T08:35:03;31.40;;;17.50;;
28551;SDS011;15752;49.560;8.708;2022-12-18T08:37:35;31.93;;;16.70;;
28551;SDS011;15752;49.560;8.708;2022-12-18T08:40:04;30.23;;;17.40;;
28551;SDS011;15752;49.560;8.708;2022-12-18T08:42:34;26.70;;;14.33;;
28551;SDS011;15752;49.560;8.708;2022-12-18T08:45:20;25.57;;;15.27;;
28551;SDS011;15752;49.560;8.708;2022-12-18T08:47:48;29.10;;;15.20;;
28551;SDS011;15752;49.560;8.708;2022-12-18T08:50:17;28.77;;;16.53;;
28551;SDS011;15752;49.560;8.708;2022-12-18T08:52:47;28.77;;;17.57;;
28551;SDS011;15752;49.560;8.708;2022-12-18T08:55:16;30.77;;;16.73;;
28551;SDS011;15752;49.560;8.708;2022-12-18T08:57:47;27.80;;;15.73;;
28551;SDS011;15752;49.560;8.708;2022-12-18T09:00:16;24.60;;;15.03;;
28551;SDS011;15752;49.560;8.708;2022-12-18T09:02:46;24.23;;;14.37;;
28551;SDS011;15752;49.560;8.708;2022-12-18T09:05:15;26.50;;;15.23;;
28551;SDS011;15752;49.560;8.708;2022-12-18T09:07:43;30.97;;;16.90;;
28551;SDS011;15752;49.560;8.708;2022-12-18T09:10:13;27.10;;;15.83;;
28551;SDS011;15752;49.560;8.708;2022-12-18T09:12:42;31.97;;;16.77;;
28551;SDS011;15752;49.560;8.708;2022-12-18T09:15:11;32.13;;;17.33;;
28551;SDS011;15752;49.560;8.708;2022-12-18T09:17:39;30.00;;;16.13;;
28551;SDS011;15752;49.560;8.708;2022-12-18T09:20:08;28.33;;;16.13;;
28551;SDS011;15752;49.560;8.708;2022-12-18T09:22:37;29.27;;;15.60;;
28551;SDS011;15752;49.560;8.708;2022-12-18T09:25:06;27.00;;;14.87;;
28551;SDS011;15752;49.560;8.708;2022-12-18T09:27:36;26.13;;;15.17;;
28551;SDS011;15752;49.560;8.708;2022-12-18T09:30:06;25.97;;;14.47;;
28551;SDS011;15752;49.560;8.708;2022-12-18T09:32:36;24.20;;;13.33;;
28551;SDS011;15752;49.560;8.708;2022-12-18T09:35:04;28.30;;;15.47;;
28551;SDS011;15752;49.560;8.708;2022-12-18T09:37:33;31.20;;;16.60;;
28551;SDS011;15752;49.560;8.708;2022-12-18T09:40:02;26.90;;;14.63;;
28551;SDS011;15752;49.560;8.708;2022-12-18T09:42:31;28.53;;;16.07;;
28551;SDS011;15752;49.560;8.708;2022-12-18T09:45:01;29.90;;;16.30;;
28551;SDS011;15752;49.560;8.708;2022-12-18T09:47:32;28.40;;;16.27;;
28551;SDS011;15752;49.560;8.708;2022-12-18T09:50:06;27.30;;;14.97;;
28551;SDS011;15752;49.560;8.708;2022-12-18T09:52:50;27.67;;;16.03;;
28551;SDS011;15752;49.560;8.708;2022-12-18T09:55:25;29.47;;;16.23;;
28551;SDS011;15752;49.560;8.708;2022-12-18T09:58:04;27.23;;;14.80;;
28551;SDS011;15752;49.560;8.708;2022-12-18T10:00:42;27.27;;;15.03;;
28551;SDS011;15752;49.560;8.708;2022-12-18T10:03:12;30.30;;;16.60;;
28551;SDS011;15752;49.560;8.708;2022-12-18T10:05:44;32.67;;;18.70;;
28551;SDS011;15752;49.560;8.708;2022-12-18T10:08:24;23.97;;;14.10;;
28551;SDS011;15752;49.560;8.708;2022-12-18T10:11:12;30.60;;;17.83;;
28551;SDS011;15752;49.560;8.708;2022-12-18T10:14:00;30.27;;;15.87;;
28551;SDS011;15752;49.560;8.708;2022-12-18T10:16:42;31.67;;;15.23;;
28551;SDS011;15752;49.560;8.708;2022-12-18T10:19:28;29.33;;;15.67;;
28551;SDS011;15752;49.560;8.708;2022-12-18T10:22:19;26.97;;;13.63;;
28551;SDS011;15752;49.560;8.708;2022-12-18T10:24:59;26.10;;;14.50;;
28551;SDS011;15752;49.560;8.708;2022-12-18T10:27:32;29.23;;;16.37;;
28551;SDS011;15752;49.560;8.708;2022-12-18T10:30:01;28.10;;;16.23;;
28551;SDS011;15752;49.560;8.708;2022-12-18T10:32:49;27.67;;;15.70;;
28551;SDS011;15752;49.560;8.708;2022-12-18T10:35:18;26.60;;;15.37;;
28551;SDS011;15752;49.560;8.708;2022-12-18T10:37:59;31.27;;;17.40;;
28551;SDS011;15752;49.560;8.708;2022-12-18T10:40:30;24.37;;;16.33;;
28551;SDS011;15752;49.560;8.708;2022-12-18T10:43:03;30.83;;;17.00;;
28551;SDS011;15752;49.560;8.708;2022-12-18T10:45:33;31.93;;;17.70;;
28551;SDS011;15752;49.560;8.708;2022-12-18T10:48:03;30.07;;;18.03;;
28551;SDS011;15752;49.560;8.708;2022-12-18T10:50:32;35.27;;;21.73;;
28551;SDS011;15752;49.560;8.708;2022-12-18T10:53:23;33.93;;;18.87;;
28551;SDS011;15752;49.560;8.708;2022-12-18T10:55:54;34.67;;;19.40;;
28551;SDS011;15752;49.560;8.708;2022-12-18T10:58:26;31.17;;;17.93;;
28551;SDS011;15752;49.560;8.708;2022-12-18T11:01:02;30.20;;;18.37;;
28551;SDS011;15752;49.560;8.708;2022-12-18T11:03:38;34.53;;;18.77;;
28551;SDS011;15752;49.560;8.708;2022-12-18T11:06:09;27.93;;;16.50;;
28551;SDS011;15752;49.560;8.708;2022-12-18T11:08:39;34.03;;;19.57;;
28551;SDS011;15752;49.560;8.708;2022-12-18T11:11:20;36.10;;;20.53;;
28551;SDS011;15752;49.560;8.708;2022-12-18T11:13:57;31.83;;;17.13;;
28551;SDS011;15752;49.560;8.708;2022-12-18T11:16:31;31.77;;;18.67;;
28551;SDS011;15752;49.560;8.708;2022-12-18T11:19:12;27.53;;;14.43;;
28551;SDS011;15752;49.560;8.708;2022-12-18T11:21:53;26.20;;;14.27;;
28551;SDS011;15752;49.560;8.708;2022-12-18T11:24:23;32.23;;;16.33;;
28551;SDS011;15752;49.560;8.708;2022-12-18T11:26:58;28.57;;;14.67;;
28551;SDS011;15752;49.560;8.708;2022-12-18T11:29:32;33.87;;;17.10;;
28551;SDS011;15752;49.560;8.708;2022-12-18T11:32:23;30.70;;;16.50;;
28551;SDS011;15752;49.560;8.708;2022-12-18T11:35:04;28.03;;;15.43;;
28551;SDS011;15752;49.560;8.708;2022-12-18T11:37:43;34.03;;;19.10;;
28551;SDS011;15752;49.560;8.708;2022-12-18T11:40:18;34.07;;;19.10;;
28551;SDS011;15752;49.560;8.708;2022-12-18T11:42:54;33.37;;;18.60;;
28551;SDS011;15752;49.560;8.708;2022-12-18T11:45:30;33.67;;;18.97;;
28551;SDS011;15752;49.560;8.708;2022-12-18T11:48:03;29.93;;;16.40;;
28551;SDS011;15752;49.560;8.708;2022-12-18T11:50:46;37.63;;;18.70;;
28551;SDS011;15752;49.560;8.708;2022-12-18T11:53:18;36.17;;;18.70;;
28551;SDS011;15752;49.560;8.708;2022-12-18T11:56:00;33.50;;;18.87;;
28551;SDS011;15752;49.560;8.708;2022-12-18T11:58:46;26.50;;;16.00;;
28551;SDS011;15752;49.560;8.708;2022-12-18T12:01:22;29.80;;;16.37;;
28551;SDS011;15752;49.560;8.708;2022-12-18T12:07:19;31.87;;;17.47;;
28551;SDS011;15752;49.560;8.708;2022-12-18T12:10:03;27.70;;;16.20;;
28551;SDS011;15752;49.560;8.708;2022-12-18T12:12:52;33.50;;;17.47;;
28551;SDS011;15752;49.560;8.708;2022-12-18T12:15:39;32.37;;;16.77;;
28551;SDS011;15752;49.560;8.708;2022-12-18T12:18:21;31.50;;;16.93;;
28551;SDS011;15752;49.560;8.708;2022-12-18T12:21:03;31.83;;;17.67;;
28551;SDS011;15752;49.560;8.708;2022-12-18T12:23:41;34.63;;;18.23;;
28551;SDS011;15752;49.560;8.708;2022-12-18T12:26:18;37.10;;;20.23;;
28551;SDS011;15752;49.560;8.708;2022-12-18T12:29:01;35.33;;;20.13;;
28551;SDS011;15752;49.560;8.708;2022-12-18T12:31:51;33.67;;;17.80;;
28551;SDS011;15752;49.560;8.708;2022-12-18T12:34:33;28.77;;;17.57;;
28551;SDS011;15752;49.560;8.708;2022-12-18T12:37:13;34.87;;;20.97;;
28551;SDS011;15752;49.560;8.708;2022-12-18T12:39:51;31.90;;;18.10;;
28551;SDS011;15752;49.560;8.708;2022-12-18T12:42:25;35.80;;;19.73;;
28551;SDS011;15752;49.560;8.708;2022-12-18T12:45:19;30.07;;;17.60;;
28551;SDS011;15752;49.560;8.708;2022-12-18T12:47:54;43.07;;;22.20;;
28551;SDS011;15752;49.560;8.708;2022-12-18T12:50:24;36.60;;;20.50;;
28551;SDS011;15752;49.560;8.708;2022-12-18T12:52:54;36.20;;;19.37;;
28551;SDS011;15752;49.560;8.708;2022-12-18T12:55:27;35.47;;;17.87;;
28551;SDS011;15752;49.560;8.708;2022-12-18T12:57:59;38.37;;;21.13;;
28551;SDS011;15752;49.560;8.708;2022-12-18T13:00:39;38.17;;;21.90;;
28551;SDS011;15752;49.560;8.708;2022-12-18T13:03:13;37.73;;;20.70;;
28551;SDS011;15752;49.560;8.708;2022-12-18T13:05:58;38.03;;;22.73;;
28551;SDS011;15752;49.560;8.708;2022-12-18T13:08:34;42.23;;;24.00;;
28551;SDS011;15752;49.560;8.708;2022-12-18T13:11:31;35.50;;;20.00;;
28551;SDS011;15752;49.560;8.708;2022-12-18T13:14:27;39.83;;;23.50;;
28551;SDS011;15752;49.560;8.708;2022-12-18T13:20:04;43.13;;;24.93;;
28551;SDS011;15752;49.560;8.708;2022-12-18T13:22:38;40.60;;;22.57;;
28551;SDS011;15752;49.560;8.708;2022-12-18T13:25:26;39.13;;;21.73;;
28551;SDS011;15752;49.560;8.708;2022-12-18T13:28:06;39.67;;;22.03;;
28551;SDS011;15752;49.560;8.708;2022-12-18T13:30:47;35.80;;;19.70;;
28551;SDS011;15752;49.560;8.708;2022-12-18T13:36:35;36.10;;;19.43;;
28551;SDS011;15752;49.560;8.708;2022-12-18T13:45:45;28.50;;;14.00;;
28551;SDS011;15752;49.560;8.708;2022-12-18T13:48:16;27.90;;;14.40;;
28551;SDS011;15752;49.560;8.708;2022-12-18T13:50:57;30.13;;;15.57;;
28551;SDS011;15752;49.560;8.708;2022-12-18T13:53:36;40.03;;;19.60;;
28551;SDS011;15752;49.560;8.708;2022-12-18T13:56:11;41.87;;;22.10;;
28551;SDS011;15752;49.560;8.708;2022-12-18T13:58:43;38.20;;;20.67;;
28551;SDS011;15752;49.560;8.708;2022-12-18T14:01:23;41.70;;;21.87;;
28551;SDS011;15752;49.560;8.708;2022-12-18T14:06:39;32.50;;;19.67;;
28551;SDS011;15752;49.560;8.708;2022-12-18T14:09:11;34.93;;;18.77;;
28551;SDS011;15752;49.560;8.708;2022-12-18T14:11:47;33.90;;;18.53;;
28551;SDS011;15752;49.560;8.708;2022-12-18T14:14:17;37.87;;;20.10;;
28551;SDS011;15752;49.560;8.708;2022-12-18T14:16:48;28.53;;;16.90;;
28551;SDS011;15752;49.560;8.708;2022-12-18T14:19:17;36.63;;;19.37;;
28551;SDS011;15752;49.560;8.708;2022-12-18T14:21:47;37.00;;;21.20;;
28551;SDS011;15752;49.560;8.708;2022-12-18T14:24:18;46.27;;;26.00;;
28551;SDS011;15752;49.560;8.708;2022-12-18T14:26:49;46.20;;;25.63;;
28551;SDS011;15752;49.560;8.708;2022-12-18T14:29:19;40.07;;;22.27;;
28551;SDS011;15752;49.560;8.708;2022-12-18T14:32:05;47.53;;;25.50;;
28551;SDS011;15752;49.560;8.708;2022-12-18T14:34:43;48.63;;;26.50;;
28551;SDS011;15752;49.560;8.708;2022-12-18T14:37:12;47.77;;;25.47;;
28551;SDS011;15752;49.560;8.708;2022-12-18T14:39:56;40.77;;;23.80;;
28551;SDS011;15752;49.560;8.708;2022-12-18T14:42:35;42.77;;;24.23;;
28551;SDS011;15752;49.560;8.708;2022-12-18T14:48:13;43.47;;;25.20;;
28551;SDS011;15752;49.560;8.708;2022-12-18T14:50:59;47.30;;;25.47;;
28551;SDS011;15752;49.560;8.708;2022-12-18T14:53:34;46.07;;;27.07;;
28551;SDS011;15752;49.560;8.708;2022-12-18T14:56:13;37.47;;;21.43;;
28551;SDS011;15752;49.560;8.708;2022-12-18T14:58:45;40.40;;;23.90;;
28551;SDS011;15752;49.560;8.708;2022-12-18T15:01:20;45.63;;;25.83;;
28551;SDS011;15752;49.560;8.708;2022-12-18T15:03:53;42.90;;;22.97;;
28551;SDS011;15752;49.560;8.708;2022-12-18T15:06:28;42.87;;;22.47;;
28551;SDS011;15752;49.560;8.708;2022-12-18T15:09:04;40.70;;;23.47;;
28551;SDS011;15752;49.560;8.708;2022-12-18T15:11:58;37.33;;;21.33;;
28551;SDS011;15752;49.560;8.708;2022-12-18T15:14:41;36.80;;;21.07;;
28551;SDS011;15752;49.560;8.708;2022-12-18T15:17:21;37.17;;;22.87;;